createdAt,value
2023-03-01T00:02:25.307Z,72.25
2023-03-01T00:04:53.041Z,72.33
2023-03-01T00:07:21.011Z,71.92
2023-03-01T00:09:48.611Z,72.35
2023-03-01T00:12:16.129Z,72.21
2023-03-01T00:14:44.945Z,72.14
2023-03-01T00:17:12.475Z,71.80
2023-03-01T00:19:39.877Z,72.37
2023-03-01T00:22:07.335Z,72.24
2023-03-01T00:24:34.833Z,72.21
2023-03-01T00:27:02.857Z,72.57
2023-03-01T00:29:30.411Z,72.30
2023-03-01T00:32:03.391Z,72.18
2023-03-01T00:34:30.920Z,72.40
2023-03-01T00:37:05.956Z,72.57
2023-03-01T00:39:34.336Z,72.02
2023-03-01T00:42:01.870Z,72.26
2023-03-01T00:44:29.397Z,72.09
2023-03-01T00:46:56.920Z,72.65
2023-03-01T00:49:28.627Z,72.36
2023-03-01T00:51:56.176Z,72.34
2023-03-01T00:54:23.638Z,72.43
2023-03-01T00:56:51.148Z,72.25
2023-03-01T00:59:18.783Z,72.58
2023-03-01T01:01:46.252Z,73.19
2023-03-01T01:04:14.900Z,72.96
2023-03-01T01:06:45.260Z,73.71
2023-03-01T01:09:17.970Z,73.25
2023-03-01T01:11:45.991Z,73.29
2023-03-01T01:14:13.767Z,73.23
2023-03-01T01:16:41.426Z,72.97
2023-03-01T01:19:08.971Z,73.32
2023-03-01T01:21:37.175Z,72.74
2023-03-01T01:24:06.930Z,73.07
2023-03-01T01:26:35.563Z,73.20
2023-03-01T01:29:04.693Z,72.69
2023-03-01T01:31:33.511Z,73.05
2023-03-01T01:34:02.067Z,72.84
2023-03-01T01:36:29.977Z,72.94
2023-03-01T01:38:57.856Z,72.74
2023-03-01T01:41:27.285Z,72.58
2023-03-01T01:44:13.655Z,72.96
2023-03-01T01:46:43.166Z,72.53
2023-03-01T01:49:19.746Z,72.87
2023-03-01T01:51:49.694Z,72.52
2023-03-01T01:54:18.864Z,72.57
2023-03-01T01:56:51.039Z,72.45
2023-03-01T01:59:18.522Z,72.92
2023-03-01T02:01:46.037Z,72.83
2023-03-01T02:04:13.537Z,73.29
2023-03-01T02:06:44.749Z,73.55
2023-03-01T02:09:15.502Z,73.60
2023-03-01T02:11:43.512Z,73.80
2023-03-01T02:14:12.862Z,73.29
2023-03-01T02:16:40.478Z,73.09
2023-03-01T02:19:09.604Z,73.24
2023-03-01T02:21:42.307Z,73.52
2023-03-01T02:24:20.383Z,73.35
2023-03-01T02:26:52.637Z,73.72
2023-03-01T02:29:22.025Z,73.09
2023-03-01T02:31:49.602Z,73.30
2023-03-01T02:34:20.011Z,73.19
2023-03-01T02:36:49.927Z,73.34
2023-03-01T02:39:20.823Z,73.54
2023-03-01T02:41:52.475Z,73.65
2023-03-01T02:44:21.469Z,73.28
2023-03-01T02:46:50.584Z,73.55
2023-03-01T02:49:21.535Z,72.99
2023-03-01T02:51:57.782Z,73.23
2023-03-01T02:54:27.406Z,73.23
2023-03-01T02:56:55.053Z,73.50
2023-03-01T02:59:26.383Z,73.60
2023-03-01T03:01:53.898Z,73.81
2023-03-01T03:04:21.946Z,73.54
2023-03-01T03:06:51.169Z,73.65
2023-03-01T03:09:19.774Z,73.72
2023-03-01T03:11:47.852Z,73.25
2023-03-01T03:14:17.101Z,73.05
2023-03-01T03:16:48.135Z,73.57
2023-03-01T03:19:15.880Z,73.14
2023-03-01T03:21:43.625Z,73.11
2023-03-01T03:24:11.142Z,73.94
2023-03-01T03:26:39.031Z,73.48
2023-03-01T03:29:06.833Z,73.67
2023-03-01T03:31:34.471Z,73.32
2023-03-01T03:34:03.577Z,72.67
2023-03-01T03:36:33.989Z,73.20
2023-03-01T03:39:01.506Z,73.07
2023-03-01T03:41:29.105Z,73.29
2023-03-01T03:43:56.614Z,73.27
2023-03-01T03:46:24.276Z,73.32
2023-03-01T03:48:51.784Z,73.26
2023-03-01T03:51:23.595Z,73.33
2023-03-01T03:53:51.037Z,73.14
2023-03-01T03:56:18.553Z,72.94
2023-03-01T03:58:46.127Z,73.29
2023-03-01T04:01:13.654Z,72.90
2023-03-01T04:03:42.735Z,73.29
2023-03-01T04:06:10.460Z,72.93
2023-03-01T04:08:39.453Z,72.65
2023-03-01T04:11:21.985Z,73.29
2023-03-01T04:13:49.946Z,72.64
2023-03-01T04:16:18.809Z,72.82
2023-03-01T04:18:46.504Z,72.54
2023-03-01T04:21:14.178Z,73.14
2023-03-01T04:23:43.920Z,73.19
2023-03-01T04:26:11.588Z,73.46
2023-03-01T04:28:41.085Z,73.23
2023-03-01T04:31:19.293Z,73.43
2023-03-01T04:33:48.798Z,73.94
2023-03-01T04:36:18.611Z,73.90
2023-03-01T04:38:49.446Z,74.06
2023-03-01T04:41:18.654Z,73.84
2023-03-01T04:43:46.607Z,73.99
2023-03-01T04:46:15.879Z,74.54
2023-03-01T04:48:45.261Z,74.67
2023-03-01T04:51:17.056Z,74.34
2023-03-01T04:53:45.460Z,74.79
2023-03-01T04:56:16.433Z,74.49
2023-03-01T04:58:44.158Z,75.27
2023-03-01T05:01:16.149Z,75.35
2023-03-01T05:06:46.573Z,74.92
2023-03-01T05:09:14.033Z,74.01
2023-03-01T05:11:42.945Z,74.02
2023-03-01T05:14:11.376Z,73.92
2023-03-01T05:16:39.188Z,74.09
2023-03-01T05:19:12.263Z,73.68
2023-03-01T05:22:00.783Z,73.88
2023-03-01T05:24:28.974Z,73.80
2023-03-01T05:26:57.838Z,73.67
2023-03-01T05:29:27.106Z,73.52
2023-03-01T05:31:55.384Z,74.01
2023-03-01T05:34:26.390Z,73.60
2023-03-01T05:36:54.084Z,74.30
2023-03-01T05:39:23.335Z,74.45
2023-03-01T05:41:51.053Z,74.14
2023-03-01T05:44:19.874Z,74.14
2023-03-01T05:46:47.634Z,75.19
2023-03-01T05:49:16.035Z,76.34
2023-03-01T05:51:43.919Z,76.93
2023-03-01T05:54:11.892Z,75.94
2023-03-01T05:56:39.590Z,75.25
2023-03-01T05:59:07.166Z,75.40
2023-03-01T06:01:37.155Z,75.11
2023-03-01T06:04:05.802Z,75.29
2023-03-01T06:06:35.918Z,75.90
2023-03-01T06:09:10.791Z,77.05
2023-03-01T06:11:38.898Z,76.97
2023-03-01T06:17:11.514Z,76.92
2023-03-01T06:19:39.187Z,77.47
2023-03-01T06:24:51.261Z,76.78
2023-03-01T06:27:18.867Z,76.26
2023-03-01T06:29:46.438Z,76.47
2023-03-01T06:32:15.513Z,76.62
2023-03-01T06:34:43.035Z,78.04
2023-03-01T06:37:10.548Z,77.95
2023-03-01T06:39:38.208Z,78.17
2023-03-01T06:42:05.955Z,78.03
2023-03-01T06:44:33.486Z,77.93
2023-03-01T06:47:01.069Z,77.06
2023-03-01T06:49:29.845Z,76.54
2023-03-01T06:51:57.310Z,76.67
2023-03-01T06:54:25.177Z,76.67
2023-03-01T06:56:55.036Z,76.64
2023-03-01T06:59:22.549Z,76.18
2023-03-01T07:01:50.103Z,76.64
2023-03-01T07:04:17.659Z,77.44
2023-03-01T07:06:46.422Z,77.57
2023-03-01T07:09:13.952Z,77.57
2023-03-01T07:11:43.916Z,79.45
2023-03-01T07:14:11.369Z,81.44
2023-03-01T07:16:38.957Z,81.80
2023-03-01T07:19:13.291Z,81.31
2023-03-01T07:21:40.866Z,80.10
2023-03-01T07:24:10.413Z,79.72
2023-03-01T07:26:37.972Z,80.15
2023-03-01T07:29:07.212Z,80.07
2023-03-01T07:31:35.374Z,78.39
2023-03-01T07:34:02.885Z,80.01
2023-03-01T07:36:30.850Z,80.13
2023-03-01T07:38:58.843Z,80.22
2023-03-01T07:41:27.730Z,80.68
2023-03-01T07:43:55.211Z,79.77
2023-03-01T07:46:23.120Z,79.48
2023-03-01T07:48:50.610Z,80.00
2023-03-01T07:51:19.382Z,79.61
2023-03-01T07:53:49.188Z,84.14
2023-03-01T07:56:18.762Z,83.23
2023-03-01T07:58:49.813Z,83.64
2023-03-01T08:01:20.933Z,82.81
2023-03-01T08:03:48.671Z,81.20
2023-03-01T08:06:18.029Z,80.66
2023-03-01T08:08:47.030Z,81.52
2023-03-01T08:11:16.477Z,81.83
2023-03-01T08:13:44.975Z,81.58
2023-03-01T08:16:16.710Z,81.49
2023-03-01T08:18:44.644Z,82.48
2023-03-01T08:21:13.857Z,86.69
2023-03-01T08:23:41.599Z,86.34
2023-03-01T08:26:10.657Z,86.07
2023-03-01T08:28:38.329Z,84.95
2023-03-01T08:31:17.455Z,85.83
2023-03-01T08:33:44.999Z,86.49
2023-03-01T08:36:12.625Z,86.40
2023-03-01T08:38:40.188Z,87.16
2023-03-01T08:41:07.728Z,87.79
2023-03-01T08:43:35.156Z,86.94
2023-03-01T08:46:02.693Z,87.39
2023-03-01T08:48:31.632Z,89.83
2023-03-01T08:50:59.153Z,89.59
2023-03-01T08:53:26.616Z,88.25
2023-03-01T08:55:54.382Z,90.18
2023-03-01T08:58:21.801Z,89.06
2023-03-01T09:00:49.256Z,88.33
2023-03-01T09:03:16.712Z,89.30
2023-03-01T09:05:46.923Z,90.54
2023-03-01T09:08:14.450Z,90.61
2023-03-01T09:10:41.906Z,91.53
2023-03-01T09:13:09.393Z,92.50
2023-03-01T09:15:38.472Z,94.51
2023-03-01T09:18:06.115Z,95.36
2023-03-01T09:20:34.418Z,95.29
2023-03-01T09:23:03.322Z,95.69
2023-03-01T09:25:30.757Z,95.99
2023-03-01T09:27:58.229Z,96.08
2023-03-01T09:30:26.155Z,96.01
2023-03-01T09:32:53.894Z,97.02
2023-03-01T09:35:23.504Z,96.36
2023-03-01T09:37:51.137Z,96.09
2023-03-01T09:40:22.418Z,97.54
2023-03-01T09:42:55.704Z,98.49
2023-03-01T09:45:29.725Z,98.31
2023-03-01T09:47:57.688Z,98.08
2023-03-01T09:50:25.255Z,97.47
2023-03-01T09:52:56.972Z,96.73
2023-03-01T09:55:29.124Z,96.17
2023-03-01T09:57:58.955Z,96.16
2023-03-01T10:00:32.787Z,96.45
2023-03-01T10:03:05.468Z,95.79
2023-03-01T10:05:43.864Z,95.94
2023-03-01T10:08:31.984Z,97.02
2023-03-01T10:11:01.011Z,96.64
2023-03-01T10:13:33.530Z,95.97
2023-03-01T10:16:04.187Z,94.89
2023-03-01T10:18:33.611Z,95.31
2023-03-01T10:21:02.544Z,95.86
2023-03-01T10:23:32.752Z,95.82
2023-03-01T10:26:12.799Z,93.82
2023-03-01T10:28:47.061Z,93.24
2023-03-01T10:31:15.949Z,93.29
2023-03-01T10:33:43.551Z,94.09
2023-03-01T10:36:11.140Z,92.18
2023-03-01T10:38:54.874Z,93.71
2023-03-01T10:41:25.313Z,92.16
2023-03-01T10:43:54.604Z,91.76
2023-03-01T10:46:29.872Z,90.84
2023-03-01T10:49:15.713Z,91.87
2023-03-01T10:51:44.845Z,92.04
2023-03-01T10:54:19.202Z,93.02
2023-03-01T10:56:53.696Z,92.07
2023-03-01T10:59:28.679Z,92.51
2023-03-01T11:02:26.195Z,93.76
2023-03-01T11:04:59.054Z,93.85
2023-03-01T11:07:26.590Z,94.01
2023-03-01T11:09:54.140Z,94.28
2023-03-01T11:12:23.670Z,94.13
2023-03-01T11:14:52.664Z,94.04
2023-03-01T11:17:24.330Z,93.31
2023-03-01T11:20:08.901Z,92.38
2023-03-01T11:22:38.071Z,92.34
2023-03-01T11:25:10.283Z,92.40
2023-03-01T11:27:43.233Z,92.18
2023-03-01T11:30:18.590Z,93.68
2023-03-01T11:32:49.837Z,93.99
2023-03-01T11:35:20.263Z,92.50
2023-03-01T11:37:59.443Z,93.18
2023-03-01T11:40:29.765Z,94.64
2023-03-01T11:43:07.387Z,94.62
2023-03-01T11:45:43.747Z,94.65
2023-03-01T11:48:49.522Z,93.47
2023-03-01T11:51:22.923Z,92.65
2023-03-01T11:54:01.712Z,94.04
2023-03-01T11:56:35.028Z,94.08
2023-03-01T11:59:28.175Z,93.85
2023-03-01T12:02:09.652Z,93.99
2023-03-01T12:04:56.366Z,94.26
2023-03-01T12:07:29.156Z,93.98
2023-03-01T12:10:11.627Z,93.81
2023-03-01T12:12:54.176Z,93.47
2023-03-01T12:15:34.596Z,93.77
2023-03-01T12:18:15.705Z,94.18
2023-03-01T12:20:46.549Z,93.77
2023-03-01T12:23:26.726Z,94.26
2023-03-01T12:25:59.556Z,92.33
2023-03-01T12:28:38.438Z,92.73
2023-03-01T12:31:44.249Z,93.74
2023-03-01T12:34:23.254Z,93.17
2023-03-01T12:37:00.323Z,93.57
2023-03-01T12:39:42.136Z,93.93
2023-03-01T12:42:17.619Z,93.51
2023-03-01T12:44:57.439Z,92.82
2023-03-01T12:47:40.400Z,93.38
2023-03-01T12:50:14.009Z,92.96
2023-03-01T12:52:44.330Z,93.16
2023-03-01T12:55:23.532Z,93.75
2023-03-01T12:57:58.468Z,93.50
2023-03-01T13:00:30.896Z,94.73
2023-03-01T13:03:02.902Z,94.29
2023-03-01T13:05:39.426Z,93.94
2023-03-01T13:08:11.498Z,93.12
2023-03-01T13:10:45.200Z,93.44
2023-03-01T13:13:16.042Z,93.75
2023-03-01T13:15:43.664Z,93.73
2023-03-01T13:18:33.214Z,94.03
2023-03-01T13:21:03.104Z,93.93
2023-03-01T13:23:33.812Z,93.51
2023-03-01T13:26:12.219Z,94.77
2023-03-01T13:28:51.034Z,94.61
2023-03-01T13:32:05.561Z,94.84
2023-03-01T13:34:52.409Z,94.12
2023-03-01T13:37:30.217Z,94.28
2023-03-01T13:39:59.763Z,93.45
2023-03-01T13:42:39.323Z,93.60
2023-03-01T13:45:20.192Z,93.70
2023-03-01T13:47:49.904Z,94.38
2023-03-01T13:50:23.202Z,94.11
2023-03-01T13:52:53.131Z,93.62
2023-03-01T13:55:23.384Z,92.12
2023-03-01T13:57:54.598Z,93.06
2023-03-01T14:00:34.288Z,92.59
2023-03-01T14:03:07.017Z,92.27
2023-03-01T14:05:37.765Z,93.76
2023-03-01T14:08:05.463Z,92.92
2023-03-01T14:10:37.536Z,93.96
2023-03-01T14:13:19.895Z,92.99
2023-03-01T14:15:52.581Z,92.46
2023-03-01T14:18:23.109Z,92.25
2023-03-01T14:20:53.654Z,92.06
2023-03-01T14:23:23.686Z,92.31
2023-03-01T14:25:53.313Z,91.90
2023-03-01T14:28:22.854Z,91.76
2023-03-01T14:30:52.126Z,91.25
2023-03-01T14:33:25.723Z,90.32
2023-03-01T14:36:00.037Z,90.89
2023-03-01T14:38:33.981Z,90.67
2023-03-01T14:41:05.655Z,91.41
2023-03-01T14:43:34.698Z,91.12
2023-03-01T14:46:02.383Z,90.50
2023-03-01T14:48:30.774Z,89.81
2023-03-01T14:51:01.065Z,90.08
2023-03-01T14:53:32.686Z,89.82
2023-03-01T14:56:04.199Z,90.96
2023-03-01T14:58:35.075Z,91.09
2023-03-01T15:01:04.463Z,91.36
2023-03-01T15:03:35.360Z,90.92
2023-03-01T15:06:06.117Z,90.93
2023-03-01T15:08:34.833Z,90.05
2023-03-01T15:11:07.999Z,90.08
2023-03-01T15:13:37.592Z,90.75
2023-03-01T15:16:08.608Z,90.21
2023-03-01T15:18:36.425Z,90.44
2023-03-01T15:21:11.566Z,90.63
2023-03-01T15:23:39.892Z,90.87
2023-03-01T15:26:07.358Z,90.79
2023-03-01T15:28:36.702Z,90.70
2023-03-01T15:31:06.555Z,90.57
2023-03-01T15:33:38.669Z,91.01
2023-03-01T15:36:33.845Z,90.39
2023-03-01T15:39:02.320Z,90.45
2023-03-01T15:41:32.876Z,89.96
2023-03-01T15:44:01.034Z,90.25
2023-03-01T15:46:31.543Z,90.82
2023-03-01T15:49:00.903Z,90.35
2023-03-01T15:51:36.133Z,89.95
2023-03-01T15:54:07.093Z,90.48
2023-03-01T15:56:35.434Z,90.24
2023-03-01T15:59:04.372Z,90.49
2023-03-01T16:01:33.213Z,90.34
2023-03-01T16:04:01.365Z,90.80
2023-03-01T16:06:29.471Z,90.80
2023-03-01T16:08:58.628Z,91.32
2023-03-01T16:11:26.142Z,91.00
2023-03-01T16:13:53.656Z,90.87
2023-03-01T16:16:22.190Z,91.02
2023-03-01T16:18:50.064Z,91.37
2023-03-01T16:21:21.767Z,91.72
2023-03-01T16:23:49.835Z,90.61
2023-03-01T16:26:21.401Z,90.63
2023-03-01T16:28:49.270Z,91.06
2023-03-01T16:31:20.557Z,91.12
2023-03-01T16:33:51.021Z,92.23
2023-03-01T16:36:20.008Z,92.61
2023-03-01T16:38:49.264Z,92.53
2023-03-01T16:41:20.404Z,93.02
2023-03-01T16:43:48.666Z,93.70
2023-03-01T16:46:18.317Z,93.18
2023-03-01T16:48:46.201Z,91.84
2023-03-01T16:51:14.119Z,91.82
2023-03-01T16:53:41.904Z,91.63
2023-03-01T16:56:11.727Z,91.77
2023-03-01T16:58:41.356Z,92.47
2023-03-01T17:01:10.301Z,92.29
2023-03-01T17:03:41.343Z,92.62
2023-03-01T17:06:11.411Z,93.48
2023-03-01T17:08:39.277Z,92.15
2023-03-01T17:13:47.971Z,90.84
2023-03-01T17:16:17.999Z,90.71
2023-03-01T17:18:45.523Z,90.43
2023-03-01T17:21:13.647Z,89.64
2023-03-01T17:23:42.611Z,89.02
2023-03-01T17:26:10.122Z,88.35
2023-03-01T17:28:38.508Z,88.29
2023-03-01T17:31:08.330Z,88.29
2023-03-01T17:33:36.101Z,87.91
2023-03-01T17:36:04.172Z,87.48
2023-03-01T17:38:31.695Z,86.90
2023-03-01T17:41:00.390Z,87.14
2023-03-01T17:43:28.422Z,87.20
2023-03-01T17:45:56.023Z,86.77
2023-03-01T17:48:25.760Z,86.87
2023-03-01T17:50:53.230Z,86.78
2023-03-01T17:53:20.851Z,86.87
2023-03-01T17:55:49.737Z,86.64
2023-03-01T17:58:22.626Z,87.16
2023-03-01T18:00:50.696Z,87.14
2023-03-01T18:03:18.279Z,87.24
2023-03-01T18:05:47.077Z,87.58
2023-03-01T18:08:14.676Z,87.66
2023-03-01T18:10:42.248Z,87.80
2023-03-01T18:13:14.962Z,87.71
2023-03-01T18:15:42.651Z,88.17
2023-03-01T18:18:10.198Z,88.20
2023-03-01T18:20:37.673Z,88.17
2023-03-01T18:23:06.676Z,88.56
2023-03-01T18:25:34.142Z,89.35
2023-03-01T18:28:02.350Z,88.59
2023-03-01T18:30:29.930Z,89.76
2023-03-01T18:32:57.523Z,89.85
2023-03-01T18:35:25.125Z,90.15
2023-03-01T18:37:52.769Z,90.86
2023-03-01T18:40:21.688Z,91.98
2023-03-01T18:42:49.184Z,91.31
2023-03-01T18:45:17.948Z,91.36
2023-03-01T18:47:45.508Z,90.66
2023-03-01T18:50:13.071Z,90.90
2023-03-01T18:52:40.622Z,91.17
2023-03-01T18:55:09.201Z,90.78
2023-03-01T18:57:38.052Z,91.16
2023-03-01T19:00:06.511Z,91.06
2023-03-01T19:02:33.991Z,92.00
2023-03-01T19:05:01.631Z,91.96
2023-03-01T19:07:29.123Z,91.13
2023-03-01T19:09:56.634Z,92.30
2023-03-01T19:12:24.294Z,92.08
2023-03-01T19:14:53.041Z,91.40
2023-03-01T19:17:22.608Z,92.57
2023-03-01T19:19:51.061Z,92.78
2023-03-01T19:22:18.472Z,92.60
2023-03-01T19:24:46.065Z,93.98
2023-03-01T19:27:13.594Z,94.88
2023-03-01T19:29:41.123Z,95.55
2023-03-01T19:32:10.014Z,96.27
2023-03-01T19:34:40.121Z,96.45
2023-03-01T19:37:09.575Z,95.98
2023-03-01T19:39:37.164Z,96.54
2023-03-01T19:42:04.924Z,96.18
2023-03-01T19:44:32.520Z,96.00
2023-03-01T19:47:00.029Z,95.56
2023-03-01T19:49:29.867Z,96.35
2023-03-01T19:51:57.317Z,97.14
2023-03-01T19:54:24.897Z,97.47
2023-03-01T19:56:52.888Z,98.23
2023-03-01T19:59:24.245Z,98.39
2023-03-01T20:01:52.066Z,98.09
2023-03-01T20:04:20.977Z,99.05
2023-03-01T20:06:50.330Z,99.64
2023-03-01T20:09:21.793Z,99.21
2023-03-01T20:11:50.009Z,98.55
2023-03-01T20:14:17.585Z,98.33
2023-03-01T20:16:45.035Z,99.46
2023-03-01T20:19:12.474Z,99.44
2023-03-01T20:21:39.871Z,98.43
2023-03-01T20:24:09.263Z,96.51
2023-03-01T20:26:37.330Z,95.04
2023-03-01T20:29:04.738Z,96.17
2023-03-01T20:31:32.281Z,94.72
2023-03-01T20:34:00.631Z,93.79
2023-03-01T20:36:28.848Z,94.53
2023-03-01T20:38:56.711Z,95.45
2023-03-01T20:41:26.811Z,94.86
2023-03-01T20:43:59.294Z,94.16
2023-03-01T20:46:30.064Z,93.58
2023-03-01T20:48:57.717Z,92.80
2023-03-01T20:51:25.406Z,93.24
2023-03-01T20:53:53.648Z,92.89
2023-03-01T20:56:22.284Z,93.00
2023-03-01T20:58:51.098Z,92.57
2023-03-01T21:01:20.882Z,94.32
2023-03-01T21:03:48.753Z,94.92
2023-03-01T21:06:16.370Z,95.30
2023-03-01T21:08:44.114Z,97.01
2023-03-01T21:11:11.705Z,98.71
2023-03-01T21:13:39.376Z,97.32
2023-03-01T21:16:13.233Z,96.30
2023-03-01T21:18:41.331Z,95.09
2023-03-01T21:21:10.639Z,95.06
2023-03-01T21:23:39.982Z,95.27
2023-03-01T21:26:08.841Z,95.11
2023-03-01T21:28:37.652Z,95.76
2023-03-01T21:31:08.487Z,96.71
2023-03-01T21:33:36.495Z,96.58
2023-03-01T21:36:06.080Z,96.83
2023-03-01T21:38:35.576Z,97.04
2023-03-01T21:41:07.263Z,97.16
2023-03-01T21:43:35.049Z,97.20
2023-03-01T21:46:03.802Z,97.37
2023-03-01T21:48:32.967Z,96.45
2023-03-01T21:51:05.188Z,96.54
2023-03-01T21:53:34.370Z,95.46
2023-03-01T21:56:07.009Z,95.35
2023-03-01T21:58:35.620Z,95.09
2023-03-01T22:28:23.712Z,96.24
2023-03-01T22:30:51.281Z,96.23
2023-03-01T22:33:18.803Z,95.80
2023-03-01T22:35:46.730Z,96.15
2023-03-01T22:38:14.453Z,96.56
2023-03-01T22:40:42.232Z,96.70
2023-03-01T22:43:11.087Z,97.25
2023-03-01T22:45:38.724Z,97.53
2023-03-01T22:48:07.565Z,97.62
2023-03-01T22:50:35.032Z,99.11
2023-03-01T22:53:03.180Z,97.82
2023-03-01T22:55:30.946Z,99.68
2023-03-01T22:57:58.357Z,100.00
2023-03-01T23:00:27.673Z,100.00
2023-03-01T23:02:55.380Z,100.00
2023-03-01T23:05:23.020Z,100.00
2023-03-01T23:07:50.782Z,100.00
2023-03-01T23:10:18.462Z,100.00
2023-03-01T23:12:46.085Z,99.58
2023-03-01T23:15:14.033Z,97.99
2023-03-01T23:17:42.931Z,97.18
2023-03-01T23:20:14.329Z,97.70
2023-03-01T23:22:42.336Z,97.10
2023-03-01T23:25:12.383Z,96.11
2023-03-01T23:27:40.157Z,94.96
2023-03-01T23:30:09.343Z,95.96
2023-03-01T23:32:40.436Z,97.79
2023-03-01T23:35:10.638Z,98.77
2023-03-01T23:37:38.620Z,99.15
2023-03-01T23:40:07.026Z,99.55
2023-03-01T23:42:34.713Z,98.45
2023-03-01T23:45:02.193Z,97.88
2023-03-01T23:47:29.744Z,97.46
2023-03-01T23:49:57.422Z,96.85
2023-03-01T23:52:26.416Z,97.05
2023-03-01T23:54:53.976Z,96.82
2023-03-01T23:57:21.526Z,95.54
2023-03-01T23:59:50.615Z,94.25
